createdAt,value
2019-03-26T00:03:36.240Z,3.31
2019-03-26T00:08:43.866Z,3.36
2019-03-26T00:13:51.535Z,3.33
2019-03-26T00:18:59.145Z,3.10
2019-03-26T00:24:06.801Z,2.89
2019-03-26T00:29:14.422Z,2.83
2019-03-26T00:34:22.091Z,3.50
2019-03-26T00:39:29.691Z,3.36
2019-03-26T00:44:37.311Z,3.14
2019-03-26T00:49:44.910Z,3.10
2019-03-26T00:54:52.629Z,3.28
2019-03-26T01:00:00.468Z,3.06
2019-03-26T01:05:07.963Z,3.31
2019-03-26T01:10:15.562Z,3.22
2019-03-26T01:15:23.289Z,3.44
2019-03-26T01:20:30.930Z,3.23
2019-03-26T01:25:39.724Z,3.34
2019-03-26T01:30:45.752Z,3.32
2019-03-26T01:35:53.432Z,3.69
2019-03-26T01:41:01.032Z,3.06
2019-03-26T01:46:08.685Z,3.17
2019-03-26T01:51:16.317Z,2.90
2019-03-26T01:56:23.983Z,3.19
2019-03-26T02:01:31.567Z,3.33
2019-03-26T02:06:39.229Z,2.85
2019-03-26T02:11:46.815Z,2.92
2019-03-26T02:16:54.521Z,2.90
2019-03-26T02:22:02.153Z,3.06
2019-03-26T02:27:09.778Z,3.07
2019-03-26T02:32:17.391Z,2.80
2019-03-26T02:37:25.056Z,3.24
2019-03-26T02:42:32.722Z,2.72
2019-03-26T02:47:40.387Z,2.72
2019-03-26T02:52:48.021Z,2.79
2019-03-26T02:57:55.688Z,2.71
2019-03-26T03:03:03.320Z,2.77
2019-03-26T03:08:11.123Z,2.85
2019-03-26T03:13:18.759Z,2.61
2019-03-26T03:18:26.420Z,2.98
2019-03-26T03:23:34.007Z,3.12
2019-03-26T03:28:41.779Z,2.80
2019-03-26T03:33:49.281Z,2.80
2019-03-26T03:38:56.947Z,2.75
2019-03-26T03:44:04.566Z,3.02
2019-03-26T03:49:12.233Z,2.92
2019-03-26T03:54:19.838Z,2.55
2019-03-26T03:59:27.558Z,2.87
2019-03-26T04:04:35.181Z,3.08
2019-03-26T04:09:42.799Z,2.95
2019-03-26T04:14:50.445Z,3.21
2019-03-26T04:19:58.088Z,3.12
2019-03-26T04:25:05.533Z,2.88
2019-03-26T04:30:13.202Z,3.40
2019-03-26T04:35:20.848Z,2.89
2019-03-26T04:40:28.491Z,2.83
2019-03-26T04:45:36.087Z,3.29
2019-03-26T04:50:43.738Z,3.17
2019-03-26T04:55:51.359Z,2.96
2019-03-26T05:00:59.029Z,3.27
2019-03-26T05:06:06.664Z,3.44
2019-03-26T05:11:14.314Z,3.29
2019-03-26T05:16:21.942Z,3.31
2019-03-26T05:21:29.571Z,3.35
2019-03-26T05:26:37.154Z,2.89
2019-03-26T05:31:44.861Z,3.01
2019-03-26T05:36:52.485Z,3.16
2019-03-26T05:42:00.172Z,3.10
2019-03-26T05:47:07.774Z,3.15
2019-03-26T05:52:15.444Z,3.04
2019-03-26T05:57:23.089Z,3.05
2019-03-26T06:02:30.743Z,3.40
2019-03-26T06:07:38.390Z,3.22
2019-03-26T06:12:50.092Z,3.40
2019-03-26T06:17:57.300Z,2.93
2019-03-26T06:23:01.097Z,3.17
2019-03-26T06:28:08.698Z,3.57
2019-03-26T06:33:16.357Z,3.67
2019-03-26T06:38:23.958Z,3.25
2019-03-26T06:43:31.673Z,3.27
2019-03-26T06:48:39.300Z,3.44
2019-03-26T06:53:46.958Z,3.10
2019-03-26T06:58:54.558Z,3.20
2019-03-26T07:04:02.215Z,3.73
2019-03-26T07:09:09.806Z,4.08
2019-03-26T07:14:17.457Z,3.35
2019-03-26T07:19:25.037Z,4.17
2019-03-26T07:24:32.891Z,3.77
2019-03-26T07:29:40.514Z,4.38
2019-03-26T07:34:48.162Z,4.39
2019-03-26T07:39:55.804Z,4.24
2019-03-26T07:45:03.451Z,3.76
2019-03-26T07:50:13.955Z,4.12
2019-03-26T07:55:18.245Z,4.94
2019-03-26T08:00:25.871Z,5.61
2019-03-26T08:05:33.550Z,6.11
2019-03-26T08:10:41.143Z,4.67
2019-03-26T08:15:48.826Z,5.95
2019-03-26T08:20:57.556Z,4.88
2019-03-26T08:26:03.629Z,4.73
2019-03-26T08:31:11.253Z,4.78
2019-03-26T08:36:18.976Z,4.70
2019-03-26T08:41:26.568Z,4.61
2019-03-26T08:46:34.239Z,4.89
2019-03-26T08:51:41.873Z,5.26
2019-03-26T08:56:49.576Z,4.94
2019-03-26T09:01:57.168Z,4.94
2019-03-26T09:07:04.837Z,4.97
2019-03-26T09:12:12.476Z,5.04
2019-03-26T09:17:20.178Z,4.74
2019-03-26T09:22:27.698Z,3.74
2019-03-26T09:27:35.338Z,4.11
2019-03-26T09:32:42.923Z,4.36
2019-03-26T09:37:50.558Z,4.40
2019-03-26T09:42:58.170Z,4.06
2019-03-26T09:48:05.812Z,3.93
2019-03-26T09:53:13.453Z,4.12
2019-03-26T09:58:21.145Z,4.59
2019-03-26T10:03:28.748Z,4.35
2019-03-26T10:08:36.422Z,4.06
2019-03-26T10:13:44.057Z,4.30
2019-03-26T10:18:51.745Z,3.86
2019-03-26T10:23:59.359Z,3.45
2019-03-26T10:29:23.868Z,3.75
2019-03-26T10:34:14.259Z,3.67
2019-03-26T10:39:21.931Z,4.24
2019-03-26T10:44:29.539Z,3.59
2019-03-26T10:49:37.209Z,4.28
2019-03-26T10:54:44.798Z,3.63
2019-03-26T10:59:52.441Z,3.59
2019-03-26T11:05:00.102Z,4.04
2019-03-26T11:10:07.781Z,4.22
2019-03-26T11:15:15.411Z,4.19
2019-03-26T11:20:23.113Z,4.72
2019-03-26T11:25:30.704Z,4.88
2019-03-26T11:30:38.364Z,5.65
2019-03-26T11:35:45.958Z,6.76
2019-03-26T11:40:53.643Z,6.69
2019-03-26T11:46:01.279Z,6.67
2019-03-26T11:51:08.941Z,7.42
2019-03-26T11:56:16.553Z,7.29
2019-03-26T12:01:24.206Z,6.25
2019-03-26T12:06:31.783Z,5.75
2019-03-26T12:11:39.446Z,6.09
2019-03-26T12:16:47.064Z,5.59
2019-03-26T12:21:54.769Z,5.96
2019-03-26T12:27:02.419Z,4.96
2019-03-26T12:32:10.089Z,4.03
2019-03-26T12:37:17.696Z,4.95
2019-03-26T12:42:25.410Z,4.68
2019-03-26T12:47:33.045Z,4.60
2019-03-26T12:52:40.704Z,4.54
2019-03-26T12:57:48.325Z,4.32
2019-03-26T13:02:55.970Z,8.33
2019-03-26T13:08:03.591Z,5.80
2019-03-26T13:13:11.238Z,5.94
2019-03-26T13:18:18.849Z,5.02
2019-03-26T13:23:26.538Z,4.72
2019-03-26T13:28:34.159Z,4.48
2019-03-26T13:33:41.849Z,6.51
2019-03-26T13:38:49.472Z,5.80
2019-03-26T13:43:57.149Z,5.45
2019-03-26T13:49:04.745Z,4.58
2019-03-26T13:54:12.423Z,4.75
2019-03-26T13:59:20.011Z,4.54
2019-03-26T14:04:27.693Z,4.83
2019-03-26T14:09:35.288Z,4.54
2019-03-26T14:14:42.987Z,4.76
2019-03-26T14:19:50.601Z,4.80
2019-03-26T14:24:58.315Z,5.19
2019-03-26T14:30:05.947Z,4.73
2019-03-26T14:35:13.612Z,3.90
2019-03-26T14:40:21.225Z,4.15
2019-03-26T14:45:28.853Z,4.85
2019-03-26T14:50:36.447Z,4.87
2019-03-26T14:55:44.063Z,4.17
2019-03-26T15:00:51.676Z,4.06
2019-03-26T15:05:59.344Z,3.77
2019-03-26T15:11:08.208Z,4.00
2019-03-26T15:16:14.227Z,4.12
2019-03-26T15:21:21.839Z,3.64
2019-03-26T15:26:29.497Z,4.61
2019-03-26T15:31:37.095Z,4.30
2019-03-26T15:36:44.803Z,3.92
2019-03-26T15:41:52.426Z,4.63
2019-03-26T15:47:00.142Z,4.10
2019-03-26T15:52:07.763Z,4.55
2019-03-26T15:57:15.421Z,4.94
2019-03-26T16:02:23.030Z,4.52
2019-03-26T16:07:33.166Z,4.26
2019-03-26T16:12:41.186Z,4.29
2019-03-26T16:17:45.049Z,4.47
2019-03-26T16:22:52.635Z,4.09
2019-03-26T16:28:00.267Z,3.99
2019-03-26T16:33:07.849Z,4.24
2019-03-26T16:38:15.539Z,4.00
2019-03-26T16:43:23.157Z,3.87
2019-03-26T16:48:30.861Z,3.58
2019-03-26T16:53:38.476Z,3.63
2019-03-26T16:58:46.120Z,3.49
2019-03-26T17:03:53.736Z,3.52
2019-03-26T17:09:01.399Z,3.53
2019-03-26T17:14:09.002Z,3.85
2019-03-26T17:19:16.723Z,3.97
2019-03-26T17:24:24.334Z,3.43
2019-03-26T17:29:31.951Z,3.53
2019-03-26T17:34:39.540Z,3.48
2019-03-26T17:39:47.201Z,3.67
2019-03-26T17:44:58.062Z,3.75
2019-03-26T17:50:02.053Z,3.36
2019-03-26T17:55:09.669Z,3.42
2019-03-26T18:00:17.401Z,3.65
2019-03-26T18:05:24.966Z,4.08
2019-03-26T18:10:32.624Z,3.59
2019-03-26T18:15:40.241Z,3.84
2019-03-26T18:20:47.943Z,3.87
2019-03-26T18:25:55.601Z,3.93
2019-03-26T18:31:03.285Z,3.49
2019-03-26T18:36:10.862Z,4.41
2019-03-26T18:41:18.592Z,4.55
2019-03-26T18:46:26.274Z,3.87
2019-03-26T18:51:34.083Z,4.13
2019-03-26T18:56:41.706Z,3.83
2019-03-26T19:01:49.477Z,3.72
2019-03-26T19:06:57.166Z,4.20
2019-03-26T19:12:05.015Z,4.47
2019-03-26T19:17:12.640Z,4.26
2019-03-26T19:22:20.332Z,4.56
2019-03-26T19:27:28.008Z,4.50
2019-03-26T19:32:35.829Z,5.25
2019-03-26T19:37:43.529Z,4.76
2019-03-26T19:42:51.304Z,4.71
2019-03-26T19:47:59.079Z,4.23
2019-03-26T19:53:06.926Z,4.03
2019-03-26T19:58:14.684Z,4.24
2019-03-26T20:03:22.559Z,4.86
2019-03-26T20:08:30.367Z,4.87
2019-03-26T20:13:38.225Z,4.41
2019-03-26T20:18:45.989Z,4.83
2019-03-26T20:23:53.913Z,4.72
2019-03-26T20:29:01.665Z,4.60
2019-03-26T20:34:09.647Z,4.35
2019-03-26T20:39:17.451Z,4.76
2019-03-26T20:44:25.262Z,4.94
2019-03-26T20:49:32.984Z,4.69
2019-03-26T20:54:40.760Z,4.52
2019-03-26T20:59:48.430Z,4.78
2019-03-26T21:04:56.317Z,5.28
2019-03-26T21:10:04.002Z,5.10
2019-03-26T21:15:11.786Z,5.30
2019-03-26T21:20:19.410Z,5.13
2019-03-26T21:25:27.300Z,5.81
2019-03-26T21:30:34.984Z,5.47
2019-03-26T21:35:42.655Z,5.80
2019-03-26T21:40:50.238Z,6.25
2019-03-26T21:45:57.756Z,5.81
2019-03-26T21:51:05.389Z,5.75
2019-03-26T21:56:13.066Z,6.25
2019-03-26T22:01:20.705Z,5.93
2019-03-26T22:06:28.342Z,5.59
2019-03-26T22:11:48.779Z,6.15
2019-03-26T22:16:43.178Z,6.00
2019-03-26T22:21:50.818Z,6.18
2019-03-26T22:26:58.507Z,6.14
2019-03-26T22:32:06.144Z,6.17
2019-03-26T22:37:13.874Z,6.26
2019-03-26T22:42:21.493Z,6.42
2019-03-26T22:47:29.168Z,6.41
2019-03-26T22:52:36.808Z,6.76
2019-03-26T22:57:44.475Z,6.05
2019-03-26T23:02:52.095Z,6.74
2019-03-26T23:07:59.813Z,6.70
2019-03-26T23:13:07.448Z,6.85
2019-03-26T23:18:15.119Z,6.52
2019-03-26T23:23:22.715Z,6.90
2019-03-26T23:28:30.330Z,6.86
2019-03-26T23:33:37.946Z,7.12
2019-03-26T23:38:45.594Z,6.40
2019-03-26T23:43:53.210Z,6.92
2019-03-26T23:49:01.705Z,6.79
2019-03-26T23:54:09.337Z,7.11
2019-03-26T23:59:17.117Z,6.96
